sensor_id;sensor_type;location;lat;lon;timestamp;P1;durP1;ratioP1;P2;durP2;ratioP2
50757;SDS011;36732;47.980;11.652;2023-06-10T00:00:35;5.47;;;3.95;;
50757;SDS011;36732;47.980;11.652;2023-06-10T00:03:01;4.13;;;3.70;;
50757;SDS011;36732;47.980;11.652;2023-06-10T00:05:26;4.28;;;3.88;;
50757;SDS011;36732;47.980;11.652;2023-06-10T00:07:54;7.97;;;4.43;;
50757;SDS011;36732;47.980;11.652;2023-06-10T00:10:21;3.60;;;3.30;;
50757;SDS011;36732;47.980;11.652;2023-06-10T00:12:49;5.32;;;4.00;;
50757;SDS011;36732;47.980;11.652;2023-06-10T00:15:16;5.80;;;3.70;;
50757;SDS011;36732;47.980;11.652;2023-06-10T00:17:42;3.63;;;3.30;;
50757;SDS011;36732;47.980;11.652;2023-06-10T00:20:08;4.03;;;3.63;;
50757;SDS011;36732;47.980;11.652;2023-06-10T00:22:37;4.85;;;3.70;;
50757;SDS011;36732;47.980;11.652;2023-06-10T00:25:04;3.83;;;3.28;;
50757;SDS011;36732;47.980;11.652;2023-06-10T00:27:31;4.40;;;3.95;;
50757;SDS011;36732;47.980;11.652;2023-06-10T00:30:00;4.30;;;3.90;;
50757;SDS011;36732;47.980;11.652;2023-06-10T00:32:29;4.15;;;3.42;;
50757;SDS011;36732;47.980;11.652;2023-06-10T00:34:56;4.68;;;3.75;;
50757;SDS011;36732;47.980;11.652;2023-06-10T00:37:21;4.82;;;3.22;;
50757;SDS011;36732;47.980;11.652;2023-06-10T00:39:47;3.83;;;3.42;;
50757;SDS011;36732;47.980;11.652;2023-06-10T00:42:13;4.22;;;3.53;;
50757;SDS011;36732;47.980;11.652;2023-06-10T00:44:39;3.80;;;3.45;;
50757;SDS011;36732;47.980;11.652;2023-06-10T00:47:05;5.13;;;4.03;;
50757;SDS011;36732;47.980;11.652;2023-06-10T00:49:32;3.83;;;3.35;;
50757;SDS011;36732;47.980;11.652;2023-06-10T00:51:58;6.95;;;4.53;;
50757;SDS011;36732;47.980;11.652;2023-06-10T00:54:24;4.78;;;4.00;;
50757;SDS011;36732;47.980;11.652;2023-06-10T00:56:50;4.50;;;3.67;;
50757;SDS011;36732;47.980;11.652;2023-06-10T00:59:18;4.18;;;3.78;;
50757;SDS011;36732;47.980;11.652;2023-06-10T01:01:45;5.53;;;3.75;;
50757;SDS011;36732;47.980;11.652;2023-06-10T01:04:12;4.47;;;3.97;;
50757;SDS011;36732;47.980;11.652;2023-06-10T01:09:24;4.45;;;3.30;;
50757;SDS011;36732;47.980;11.652;2023-06-10T01:15:04;5.55;;;3.58;;
50757;SDS011;36732;47.980;11.652;2023-06-10T01:17:31;4.93;;;3.67;;
50757;SDS011;36732;47.980;11.652;2023-06-10T01:19:57;4.93;;;3.75;;
50757;SDS011;36732;47.980;11.652;2023-06-10T01:22:26;3.53;;;3.05;;
50757;SDS011;36732;47.980;11.652;2023-06-10T01:24:57;4.78;;;3.80;;
50757;SDS011;36732;47.980;11.652;2023-06-10T01:27:26;4.38;;;3.67;;
50757;SDS011;36732;47.980;11.652;2023-06-10T01:29:58;4.15;;;3.78;;
50757;SDS011;36732;47.980;11.652;2023-06-10T01:32:34;4.50;;;3.80;;
50757;SDS011;36732;47.980;11.652;2023-06-10T01:35:06;4.32;;;3.78;;
50757;SDS011;36732;47.980;11.652;2023-06-10T01:37:33;6.18;;;3.90;;
50757;SDS011;36732;47.980;11.652;2023-06-10T01:40:00;7.13;;;3.75;;
50757;SDS011;36732;47.980;11.652;2023-06-10T01:42:30;5.20;;;3.83;;
50757;SDS011;36732;47.980;11.652;2023-06-10T01:44:57;4.20;;;3.80;;
50757;SDS011;36732;47.980;11.652;2023-06-10T01:47:23;3.78;;;3.30;;
50757;SDS011;36732;47.980;11.652;2023-06-10T01:49:49;3.97;;;3.58;;
50757;SDS011;36732;47.980;11.652;2023-06-10T01:52:15;4.53;;;3.85;;
50757;SDS011;36732;47.980;11.652;2023-06-10T01:54:41;4.65;;;3.60;;
50757;SDS011;36732;47.980;11.652;2023-06-10T01:57:06;4.18;;;3.53;;
50757;SDS011;36732;47.980;11.652;2023-06-10T01:59:32;4.47;;;4.03;;
50757;SDS011;36732;47.980;11.652;2023-06-10T02:01:58;4.90;;;4.20;;
50757;SDS011;36732;47.980;11.652;2023-06-10T02:04:24;4.55;;;3.95;;
50757;SDS011;36732;47.980;11.652;2023-06-10T02:06:49;4.40;;;3.85;;
50757;SDS011;36732;47.980;11.652;2023-06-10T02:09:15;5.15;;;3.53;;
50757;SDS011;36732;47.980;11.652;2023-06-10T02:11:43;3.95;;;3.38;;
50757;SDS011;36732;47.980;11.652;2023-06-10T02:14:09;3.47;;;3.17;;
50757;SDS011;36732;47.980;11.652;2023-06-10T02:16:34;4.00;;;3.17;;
50757;SDS011;36732;47.980;11.652;2023-06-10T02:19:00;3.42;;;3.13;;
50757;SDS011;36732;47.980;11.652;2023-06-10T02:21:26;5.95;;;3.40;;
50757;SDS011;36732;47.980;11.652;2023-06-10T02:23:51;5.28;;;3.67;;
50757;SDS011;36732;47.980;11.652;2023-06-10T02:26:17;3.80;;;3.22;;
50757;SDS011;36732;47.980;11.652;2023-06-10T02:28:43;6.55;;;3.17;;
50757;SDS011;36732;47.980;11.652;2023-06-10T02:31:09;3.80;;;3.30;;
50757;SDS011;36732;47.980;11.652;2023-06-10T02:33:35;4.65;;;3.67;;
50757;SDS011;36732;47.980;11.652;2023-06-10T02:36:05;4.05;;;3.65;;
50757;SDS011;36732;47.980;11.652;2023-06-10T02:38:31;5.10;;;3.40;;
50757;SDS011;36732;47.980;11.652;2023-06-10T02:40:57;4.10;;;3.70;;
50757;SDS011;36732;47.980;11.652;2023-06-10T02:43:22;4.00;;;3.60;;
50757;SDS011;36732;47.980;11.652;2023-06-10T02:45:48;4.78;;;4.25;;
50757;SDS011;36732;47.980;11.652;2023-06-10T02:48:14;6.05;;;4.78;;
50757;SDS011;36732;47.980;11.652;2023-06-10T02:50:39;8.55;;;4.25;;
50757;SDS011;36732;47.980;11.652;2023-06-10T02:53:05;4.78;;;3.78;;
50757;SDS011;36732;47.980;11.652;2023-06-10T02:55:31;5.00;;;3.90;;
50757;SDS011;36732;47.980;11.652;2023-06-10T02:57:57;5.30;;;4.18;;
50757;SDS011;36732;47.980;11.652;2023-06-10T03:00:24;5.85;;;4.20;;
50757;SDS011;36732;47.980;11.652;2023-06-10T03:02:50;6.53;;;4.20;;
50757;SDS011;36732;47.980;11.652;2023-06-10T03:05:15;5.63;;;4.72;;
50757;SDS011;36732;47.980;11.652;2023-06-10T03:07:42;5.75;;;4.10;;
50757;SDS011;36732;47.980;11.652;2023-06-10T03:10:07;5.28;;;3.67;;
50757;SDS011;36732;47.980;11.652;2023-06-10T03:12:33;4.70;;;3.50;;
50757;SDS011;36732;47.980;11.652;2023-06-10T03:14:59;4.68;;;4.00;;
50757;SDS011;36732;47.980;11.652;2023-06-10T03:17:25;4.38;;;3.70;;
50757;SDS011;36732;47.980;11.652;2023-06-10T03:19:50;4.72;;;3.60;;
50757;SDS011;36732;47.980;11.652;2023-06-10T03:22:16;4.00;;;3.60;;
50757;SDS011;36732;47.980;11.652;2023-06-10T03:24:42;4.47;;;3.75;;
50757;SDS011;36732;47.980;11.652;2023-06-10T03:27:11;4.10;;;3.70;;
50757;SDS011;36732;47.980;11.652;2023-06-10T03:29:38;5.38;;;4.47;;
50757;SDS011;36732;47.980;11.652;2023-06-10T03:32:04;5.30;;;4.43;;
50757;SDS011;36732;47.980;11.652;2023-06-10T03:34:31;3.85;;;3.45;;
50757;SDS011;36732;47.980;11.652;2023-06-10T03:36:57;4.07;;;3.63;;
50757;SDS011;36732;47.980;11.652;2023-06-10T03:39:23;3.67;;;3.38;;
50757;SDS011;36732;47.980;11.652;2023-06-10T03:41:49;4.43;;;3.85;;
50757;SDS011;36732;47.980;11.652;2023-06-10T03:44:15;3.95;;;3.53;;
50757;SDS011;36732;47.980;11.652;2023-06-10T03:46:41;5.45;;;4.22;;
50757;SDS011;36732;47.980;11.652;2023-06-10T03:49:07;4.78;;;4.28;;
50757;SDS011;36732;47.980;11.652;2023-06-10T03:51:32;5.85;;;3.83;;
50757;SDS011;36732;47.980;11.652;2023-06-10T03:53:58;4.32;;;3.92;;
50757;SDS011;36732;47.980;11.652;2023-06-10T03:56:24;4.10;;;3.50;;
50757;SDS011;36732;47.980;11.652;2023-06-10T03:58:50;5.30;;;4.30;;
50757;SDS011;36732;47.980;11.652;2023-06-10T04:01:16;6.13;;;4.10;;
50757;SDS011;36732;47.980;11.652;2023-06-10T04:03:46;4.15;;;3.75;;
50757;SDS011;36732;47.980;11.652;2023-06-10T04:06:13;4.00;;;3.60;;
50757;SDS011;36732;47.980;11.652;2023-06-10T04:08:39;3.60;;;3.30;;
50757;SDS011;36732;47.980;11.652;2023-06-10T04:11:05;4.45;;;3.97;;
50757;SDS011;36732;47.980;11.652;2023-06-10T04:13:31;5.25;;;3.90;;
50757;SDS011;36732;47.980;11.652;2023-06-10T04:15:56;5.75;;;3.65;;
50757;SDS011;36732;47.980;11.652;2023-06-10T04:18:22;4.90;;;4.40;;
50757;SDS011;36732;47.980;11.652;2023-06-10T04:20:48;7.05;;;3.75;;
50757;SDS011;36732;47.980;11.652;2023-06-10T04:23:14;4.03;;;3.63;;
50757;SDS011;36732;47.980;11.652;2023-06-10T04:25:40;4.20;;;3.80;;
50757;SDS011;36732;47.980;11.652;2023-06-10T04:28:05;4.38;;;3.97;;
50757;SDS011;36732;47.980;11.652;2023-06-10T04:30:31;4.90;;;3.92;;
50757;SDS011;36732;47.980;11.652;2023-06-10T04:32:57;6.05;;;3.72;;
50757;SDS011;36732;47.980;11.652;2023-06-10T04:35:23;4.75;;;3.63;;
50757;SDS011;36732;47.980;11.652;2023-06-10T04:37:51;4.35;;;3.95;;
50757;SDS011;36732;47.980;11.652;2023-06-10T04:40:17;3.92;;;3.50;;
50757;SDS011;36732;47.980;11.652;2023-06-10T04:42:43;4.43;;;4.03;;
50757;SDS011;36732;47.980;11.652;2023-06-10T04:45:09;5.43;;;3.70;;
50757;SDS011;36732;47.980;11.652;2023-06-10T04:47:35;4.35;;;3.95;;
50757;SDS011;36732;47.980;11.652;2023-06-10T04:50:01;5.25;;;4.30;;
50757;SDS011;36732;47.980;11.652;2023-06-10T04:52:27;4.88;;;4.00;;
50757;SDS011;36732;47.980;11.652;2023-06-10T04:54:53;4.95;;;4.32;;
50757;SDS011;36732;47.980;11.652;2023-06-10T04:57:19;5.05;;;4.50;;
50757;SDS011;36732;47.980;11.652;2023-06-10T04:59:46;5.18;;;4.68;;
50757;SDS011;36732;47.980;11.652;2023-06-10T05:02:12;5.05;;;4.63;;
50757;SDS011;36732;47.980;11.652;2023-06-10T05:04:38;5.03;;;4.63;;
50757;SDS011;36732;47.980;11.652;2023-06-10T05:07:04;14.70;;;5.18;;
50757;SDS011;36732;47.980;11.652;2023-06-10T05:09:30;5.45;;;4.95;;
50757;SDS011;36732;47.980;11.652;2023-06-10T05:11:56;5.03;;;4.53;;
50757;SDS011;36732;47.980;11.652;2023-06-10T05:14:22;5.72;;;4.43;;
50757;SDS011;36732;47.980;11.652;2023-06-10T05:16:48;6.53;;;4.85;;
50757;SDS011;36732;47.980;11.652;2023-06-10T05:19:14;6.63;;;5.93;;
50757;SDS011;36732;47.980;11.652;2023-06-10T05:21:41;6.75;;;6.15;;
50757;SDS011;36732;47.980;11.652;2023-06-10T05:24:07;5.68;;;5.18;;
50757;SDS011;36732;47.980;11.652;2023-06-10T05:26:33;6.32;;;5.57;;
50757;SDS011;36732;47.980;11.652;2023-06-10T05:29:02;6.55;;;5.85;;
50757;SDS011;36732;47.980;11.652;2023-06-10T05:31:29;7.05;;;6.00;;
50757;SDS011;36732;47.980;11.652;2023-06-10T05:33:55;6.60;;;6.00;;
50757;SDS011;36732;47.980;11.652;2023-06-10T05:36:20;5.47;;;4.97;;
50757;SDS011;36732;47.980;11.652;2023-06-10T05:38:46;6.97;;;6.28;;
50757;SDS011;36732;47.980;11.652;2023-06-10T05:41:12;6.15;;;5.55;;
50757;SDS011;36732;47.980;11.652;2023-06-10T05:43:38;7.55;;;6.75;;
50757;SDS011;36732;47.980;11.652;2023-06-10T05:46:03;6.03;;;5.35;;
50757;SDS011;36732;47.980;11.652;2023-06-10T05:48:29;6.35;;;5.75;;
50757;SDS011;36732;47.980;11.652;2023-06-10T05:50:55;6.07;;;5.47;;
50757;SDS011;36732;47.980;11.652;2023-06-10T05:53:21;6.78;;;6.18;;
50757;SDS011;36732;47.980;11.652;2023-06-10T05:55:47;5.57;;;4.95;;
50757;SDS011;36732;47.980;11.652;2023-06-10T05:58:13;5.80;;;5.30;;
50757;SDS011;36732;47.980;11.652;2023-06-10T06:00:39;5.55;;;5.05;;
50757;SDS011;36732;47.980;11.652;2023-06-10T06:03:06;6.43;;;5.82;;
50757;SDS011;36732;47.980;11.652;2023-06-10T06:05:33;7.32;;;5.32;;
50757;SDS011;36732;47.980;11.652;2023-06-10T06:08:03;5.70;;;5.10;;
50757;SDS011;36732;47.980;11.652;2023-06-10T06:10:30;6.15;;;5.55;;
50757;SDS011;36732;47.980;11.652;2023-06-10T06:12:55;7.57;;;6.22;;
50757;SDS011;36732;47.980;11.652;2023-06-10T06:15:21;6.93;;;6.22;;
50757;SDS011;36732;47.980;11.652;2023-06-10T06:17:47;8.70;;;6.45;;
50757;SDS011;36732;47.980;11.652;2023-06-10T06:20:13;8.88;;;6.90;;
50757;SDS011;36732;47.980;11.652;2023-06-10T06:22:38;6.65;;;6.05;;
50757;SDS011;36732;47.980;11.652;2023-06-10T06:25:04;6.50;;;5.45;;
50757;SDS011;36732;47.980;11.652;2023-06-10T06:27:31;6.15;;;5.55;;
50757;SDS011;36732;47.980;11.652;2023-06-10T06:29:56;6.40;;;5.80;;
50757;SDS011;36732;47.980;11.652;2023-06-10T06:32:22;7.47;;;6.78;;
50757;SDS011;36732;47.980;11.652;2023-06-10T06:34:49;8.85;;;6.60;;
50757;SDS011;36732;47.980;11.652;2023-06-10T06:37:20;6.70;;;6.10;;
50757;SDS011;36732;47.980;11.652;2023-06-10T06:39:50;6.68;;;5.60;;
50757;SDS011;36732;47.980;11.652;2023-06-10T06:42:16;6.95;;;5.35;;
50757;SDS011;36732;47.980;11.652;2023-06-10T06:44:42;6.93;;;6.18;;
50757;SDS011;36732;47.980;11.652;2023-06-10T06:47:08;6.80;;;6.20;;
50757;SDS011;36732;47.980;11.652;2023-06-10T06:49:34;7.15;;;6.28;;
50757;SDS011;36732;47.980;11.652;2023-06-10T06:52:00;9.00;;;6.95;;
50757;SDS011;36732;47.980;11.652;2023-06-10T06:54:26;7.13;;;6.43;;
50757;SDS011;36732;47.980;11.652;2023-06-10T06:56:52;6.70;;;6.05;;
50757;SDS011;36732;47.980;11.652;2023-06-10T06:59:18;7.15;;;6.45;;
50757;SDS011;36732;47.980;11.652;2023-06-10T07:01:44;7.22;;;6.43;;
50757;SDS011;36732;47.980;11.652;2023-06-10T07:04:11;7.45;;;6.57;;
50757;SDS011;36732;47.980;11.652;2023-06-10T07:06:39;6.35;;;5.75;;
50757;SDS011;36732;47.980;11.652;2023-06-10T07:09:05;6.32;;;5.72;;
50757;SDS011;36732;47.980;11.652;2023-06-10T07:11:31;7.22;;;6.53;;
50757;SDS011;36732;47.980;11.652;2023-06-10T07:13:57;7.75;;;6.68;;
50757;SDS011;36732;47.980;11.652;2023-06-10T07:16:23;7.72;;;5.95;;
50757;SDS011;36732;47.980;11.652;2023-06-10T07:18:48;6.53;;;5.82;;
50757;SDS011;36732;47.980;11.652;2023-06-10T07:21:14;7.82;;;6.53;;
50757;SDS011;36732;47.980;11.652;2023-06-10T07:23:43;7.50;;;6.80;;
50757;SDS011;36732;47.980;11.652;2023-06-10T07:26:09;5.78;;;5.28;;
50757;SDS011;36732;47.980;11.652;2023-06-10T07:28:38;5.95;;;5.35;;
50757;SDS011;36732;47.980;11.652;2023-06-10T07:31:07;8.27;;;6.22;;
50757;SDS011;36732;47.980;11.652;2023-06-10T07:33:33;6.32;;;5.22;;
50757;SDS011;36732;47.980;11.652;2023-06-10T07:35:59;5.90;;;5.30;;
50757;SDS011;36732;47.980;11.652;2023-06-10T07:38:25;6.55;;;5.05;;
50757;SDS011;36732;47.980;11.652;2023-06-10T07:40:51;10.02;;;5.20;;
50757;SDS011;36732;47.980;11.652;2023-06-10T07:43:18;8.40;;;5.38;;
50757;SDS011;36732;47.980;11.652;2023-06-10T07:45:43;4.93;;;4.50;;
50757;SDS011;36732;47.980;11.652;2023-06-10T07:48:09;8.00;;;5.20;;
50757;SDS011;36732;47.980;11.652;2023-06-10T07:50:35;5.60;;;4.82;;
50757;SDS011;36732;47.980;11.652;2023-06-10T07:53:01;7.70;;;5.32;;
50757;SDS011;36732;47.980;11.652;2023-06-10T07:55:27;5.93;;;4.85;;
50757;SDS011;36732;47.980;11.652;2023-06-10T07:57:53;5.50;;;4.45;;
50757;SDS011;36732;47.980;11.652;2023-06-10T08:00:20;5.53;;;4.25;;
50757;SDS011;36732;47.980;11.652;2023-06-10T08:02:46;4.95;;;4.40;;
50757;SDS011;36732;47.980;11.652;2023-06-10T08:05:12;6.97;;;4.10;;
50757;SDS011;36732;47.980;11.652;2023-06-10T08:07:41;4.53;;;4.13;;
50757;SDS011;36732;47.980;11.652;2023-06-10T08:10:07;4.55;;;4.13;;
50757;SDS011;36732;47.980;11.652;2023-06-10T08:12:33;5.28;;;3.63;;
50757;SDS011;36732;47.980;11.652;2023-06-10T08:15:00;5.53;;;3.70;;
50757;SDS011;36732;47.980;11.652;2023-06-10T08:17:26;4.45;;;3.45;;
50757;SDS011;36732;47.980;11.652;2023-06-10T08:19:52;3.88;;;3.47;;
50757;SDS011;36732;47.980;11.652;2023-06-10T08:22:18;4.97;;;4.28;;
50757;SDS011;36732;47.980;11.652;2023-06-10T08:24:44;4.22;;;3.83;;
50757;SDS011;36732;47.980;11.652;2023-06-10T08:27:09;4.03;;;3.63;;
50757;SDS011;36732;47.980;11.652;2023-06-10T08:29:35;4.07;;;3.28;;
50757;SDS011;36732;47.980;11.652;2023-06-10T08:32:01;3.92;;;3.53;;
50757;SDS011;36732;47.980;11.652;2023-06-10T08:34:27;4.18;;;3.40;;
50757;SDS011;36732;47.980;11.652;2023-06-10T08:36:53;4.95;;;3.95;;
50757;SDS011;36732;47.980;11.652;2023-06-10T08:39:20;4.82;;;3.70;;
50757;SDS011;36732;47.980;11.652;2023-06-10T08:44:47;3.58;;;3.15;;
50757;SDS011;36732;47.980;11.652;2023-06-10T08:47:20;3.78;;;3.28;;
50757;SDS011;36732;47.980;11.652;2023-06-10T08:49:49;3.97;;;3.10;;
50757;SDS011;36732;47.980;11.652;2023-06-10T08:52:21;4.45;;;3.00;;
50757;SDS011;36732;47.980;11.652;2023-06-10T08:54:56;3.38;;;3.08;;
50757;SDS011;36732;47.980;11.652;2023-06-10T08:57:25;4.03;;;3.63;;
50757;SDS011;36732;47.980;11.652;2023-06-10T08:59:55;3.65;;;3.35;;
50757;SDS011;36732;47.980;11.652;2023-06-10T09:02:23;3.50;;;3.20;;
50757;SDS011;36732;47.980;11.652;2023-06-10T09:04:50;3.60;;;3.28;;
50757;SDS011;36732;47.980;11.652;2023-06-10T09:07:16;4.78;;;3.42;;
50757;SDS011;36732;47.980;11.652;2023-06-10T09:09:43;3.28;;;2.97;;
50757;SDS011;36732;47.980;11.652;2023-06-10T09:12:10;2.85;;;2.55;;
50757;SDS011;36732;47.980;11.652;2023-06-10T09:14:38;4.00;;;3.60;;
50757;SDS011;36732;47.980;11.652;2023-06-10T09:17:04;5.05;;;3.17;;
50757;SDS011;36732;47.980;11.652;2023-06-10T09:19:31;6.15;;;3.35;;
50757;SDS011;36732;47.980;11.652;2023-06-10T09:21:57;4.43;;;4.03;;
50757;SDS011;36732;47.980;11.652;2023-06-10T09:24:24;6.95;;;3.83;;
50757;SDS011;36732;47.980;11.652;2023-06-10T09:26:50;4.22;;;3.83;;
50757;SDS011;36732;47.980;11.652;2023-06-10T09:29:28;6.05;;;4.22;;
50757;SDS011;36732;47.980;11.652;2023-06-10T09:31:54;4.15;;;3.78;;
50757;SDS011;36732;47.980;11.652;2023-06-10T09:34:20;4.40;;;4.00;;
50757;SDS011;36732;47.980;11.652;2023-06-10T09:36:50;5.70;;;4.13;;
50757;SDS011;36732;47.980;11.652;2023-06-10T09:39:17;4.32;;;3.50;;
50757;SDS011;36732;47.980;11.652;2023-06-10T09:41:44;4.20;;;3.65;;
50757;SDS011;36732;47.980;11.652;2023-06-10T09:44:11;3.15;;;2.85;;
50757;SDS011;36732;47.980;11.652;2023-06-10T09:46:47;4.68;;;2.92;;
50757;SDS011;36732;47.980;11.652;2023-06-10T09:49:18;5.55;;;3.40;;
50757;SDS011;36732;47.980;11.652;2023-06-10T09:51:50;2.78;;;2.58;;
50757;SDS011;36732;47.980;11.652;2023-06-10T09:54:20;2.83;;;2.63;;
50757;SDS011;36732;47.980;11.652;2023-06-10T09:56:47;3.17;;;2.88;;
50757;SDS011;36732;47.980;11.652;2023-06-10T09:59:15;2.90;;;2.60;;
50757;SDS011;36732;47.980;11.652;2023-06-10T10:01:41;2.70;;;2.50;;
50757;SDS011;36732;47.980;11.652;2023-06-10T10:04:07;4.10;;;3.15;;
50757;SDS011;36732;47.980;11.652;2023-06-10T10:06:32;3.42;;;3.10;;
50757;SDS011;36732;47.980;11.652;2023-06-10T10:09:00;4.00;;;3.00;;
50757;SDS011;36732;47.980;11.652;2023-06-10T10:11:28;2.55;;;2.35;;
50757;SDS011;36732;47.980;11.652;2023-06-10T10:13:55;3.33;;;2.60;;
50757;SDS011;36732;47.980;11.652;2023-06-10T10:16:23;5.15;;;3.20;;
50757;SDS011;36732;47.980;11.652;2023-06-10T10:19:04;3.67;;;3.17;;
50757;SDS011;36732;47.980;11.652;2023-06-10T10:21:38;3.55;;;3.08;;
50757;SDS011;36732;47.980;11.652;2023-06-10T10:24:20;3.67;;;2.72;;
50757;SDS011;36732;47.980;11.652;2023-06-10T10:26:49;3.35;;;2.70;;
50757;SDS011;36732;47.980;11.652;2023-06-10T10:29:17;3.20;;;2.90;;
50757;SDS011;36732;47.980;11.652;2023-06-10T10:31:53;2.92;;;2.60;;
50757;SDS011;36732;47.980;11.652;2023-06-10T10:34:26;3.13;;;2.58;;
50757;SDS011;36732;47.980;11.652;2023-06-10T10:37:12;4.25;;;2.72;;
50757;SDS011;36732;47.980;11.652;2023-06-10T10:39:37;3.05;;;2.75;;
50757;SDS011;36732;47.980;11.652;2023-06-10T10:42:05;2.85;;;2.58;;
50757;SDS011;36732;47.980;11.652;2023-06-10T10:44:34;3.22;;;2.90;;
50757;SDS011;36732;47.980;11.652;2023-06-10T10:47:02;2.70;;;2.45;;
50757;SDS011;36732;47.980;11.652;2023-06-10T10:49:32;2.63;;;2.20;;
50757;SDS011;36732;47.980;11.652;2023-06-10T10:52:01;4.55;;;2.65;;
50757;SDS011;36732;47.980;11.652;2023-06-10T10:54:34;4.20;;;2.75;;
50757;SDS011;36732;47.980;11.652;2023-06-10T11:02:31;3.33;;;3.03;;
50757;SDS011;36732;47.980;11.652;2023-06-10T11:05:03;3.92;;;2.72;;
50757;SDS011;36732;47.980;11.652;2023-06-10T11:07:31;2.60;;;2.40;;
50757;SDS011;36732;47.980;11.652;2023-06-10T11:09:58;3.05;;;2.60;;
50757;SDS011;36732;47.980;11.652;2023-06-10T11:15:32;3.30;;;2.47;;
50757;SDS011;36732;47.980;11.652;2023-06-10T11:18:11;3.53;;;2.47;;
50757;SDS011;36732;47.980;11.652;2023-06-10T11:21:04;3.45;;;2.50;;
50757;SDS011;36732;47.980;11.652;2023-06-10T11:26:19;2.45;;;2.15;;
50757;SDS011;36732;47.980;11.652;2023-06-10T11:33:56;2.45;;;2.08;;
50757;SDS011;36732;47.980;11.652;2023-06-10T11:36:30;1.95;;;1.75;;
50757;SDS011;36732;47.980;11.652;2023-06-10T11:38:58;2.20;;;2.00;;
50757;SDS011;36732;47.980;11.652;2023-06-10T11:41:25;2.47;;;2.28;;
50757;SDS011;36732;47.980;11.652;2023-06-10T11:43:54;2.38;;;2.17;;
50757;SDS011;36732;47.980;11.652;2023-06-10T11:46:23;3.13;;;2.55;;
50757;SDS011;36732;47.980;11.652;2023-06-10T11:48:52;2.00;;;1.80;;
50757;SDS011;36732;47.980;11.652;2023-06-10T11:51:26;2.35;;;1.92;;
50757;SDS011;36732;47.980;11.652;2023-06-10T11:54:00;2.35;;;1.92;;
50757;SDS011;36732;47.980;11.652;2023-06-10T11:56:27;2.13;;;1.92;;
50757;SDS011;36732;47.980;11.652;2023-06-10T11:59:04;2.30;;;2.10;;
50757;SDS011;36732;47.980;11.652;2023-06-10T12:01:35;2.78;;;2.15;;
50757;SDS011;36732;47.980;11.652;2023-06-10T12:04:05;3.80;;;2.30;;
50757;SDS011;36732;47.980;11.652;2023-06-10T12:11:50;2.33;;;2.08;;
50757;SDS011;36732;47.980;11.652;2023-06-10T12:17:20;3.47;;;1.70;;
50757;SDS011;36732;47.980;11.652;2023-06-10T12:19:48;2.20;;;1.88;;
50757;SDS011;36732;47.980;11.652;2023-06-10T12:22:15;2.28;;;2.08;;
50757;SDS011;36732;47.980;11.652;2023-06-10T12:24:45;1.95;;;1.83;;
50757;SDS011;36732;47.980;11.652;2023-06-10T12:27:28;2.78;;;1.90;;
50757;SDS011;36732;47.980;11.652;2023-06-10T12:29:55;2.97;;;2.17;;
50757;SDS011;36732;47.980;11.652;2023-06-10T12:32:35;3.97;;;2.08;;
50757;SDS011;36732;47.980;11.652;2023-06-10T12:35:04;1.90;;;1.70;;
50757;SDS011;36732;47.980;11.652;2023-06-10T12:37:31;2.28;;;2.08;;
50757;SDS011;36732;47.980;11.652;2023-06-10T12:40:01;5.22;;;2.30;;
50757;SDS011;36732;47.980;11.652;2023-06-10T12:42:28;7.40;;;2.83;;
50757;SDS011;36732;47.980;11.652;2023-06-10T12:44:56;2.40;;;2.00;;
50757;SDS011;36732;47.980;11.652;2023-06-10T12:47:44;3.30;;;2.20;;
50757;SDS011;36732;47.980;11.652;2023-06-10T12:50:09;2.22;;;2.03;;
50757;SDS011;36732;47.980;11.652;2023-06-10T12:52:37;2.67;;;2.05;;
50757;SDS011;36732;47.980;11.652;2023-06-10T12:55:02;2.30;;;2.10;;
50757;SDS011;36732;47.980;11.652;2023-06-10T12:57:29;2.45;;;2.25;;
50757;SDS011;36732;47.980;11.652;2023-06-10T12:59:56;5.05;;;2.63;;
50757;SDS011;36732;47.980;11.652;2023-06-10T13:02:28;2.73;;;2.00;;
50757;SDS011;36732;47.980;11.652;2023-06-10T13:04:54;2.70;;;2.30;;
50757;SDS011;36732;47.980;11.652;2023-06-10T13:07:19;5.55;;;2.65;;
50757;SDS011;36732;47.980;11.652;2023-06-10T13:09:47;2.22;;;2.00;;
50757;SDS011;36732;47.980;11.652;2023-06-10T13:12:13;5.50;;;2.53;;
50757;SDS011;36732;47.980;11.652;2023-06-10T13:14:39;2.95;;;2.45;;
50757;SDS011;36732;47.980;11.652;2023-06-10T13:17:05;2.72;;;2.30;;
50757;SDS011;36732;47.980;11.652;2023-06-10T13:19:31;3.55;;;2.13;;
50757;SDS011;36732;47.980;11.652;2023-06-10T13:21:59;2.53;;;2.17;;
50757;SDS011;36732;47.980;11.652;2023-06-10T13:24:25;2.75;;;2.53;;
50757;SDS011;36732;47.980;11.652;2023-06-10T13:26:51;2.80;;;2.60;;
50757;SDS011;36732;47.980;11.652;2023-06-10T13:29:17;3.15;;;2.83;;
50757;SDS011;36732;47.980;11.652;2023-06-10T13:31:42;3.20;;;2.63;;
50757;SDS011;36732;47.980;11.652;2023-06-10T13:34:08;7.70;;;2.53;;
50757;SDS011;36732;47.980;11.652;2023-06-10T13:36:34;3.58;;;3.28;;
50757;SDS011;36732;47.980;11.652;2023-06-10T13:38:59;3.15;;;2.85;;
50757;SDS011;36732;47.980;11.652;2023-06-10T13:41:25;2.78;;;2.20;;
50757;SDS011;36732;47.980;11.652;2023-06-10T13:43:53;2.60;;;2.40;;
50757;SDS011;36732;47.980;11.652;2023-06-10T13:46:20;3.03;;;2.72;;
50757;SDS011;36732;47.980;11.652;2023-06-10T13:48:46;3.17;;;2.80;;
50757;SDS011;36732;47.980;11.652;2023-06-10T13:51:12;2.88;;;2.67;;
50757;SDS011;36732;47.980;11.652;2023-06-10T13:53:38;5.43;;;2.75;;
50757;SDS011;36732;47.980;11.652;2023-06-10T13:56:04;5.50;;;2.97;;
50757;SDS011;36732;47.980;11.652;2023-06-10T13:58:30;2.85;;;2.55;;
50757;SDS011;36732;47.980;11.652;2023-06-10T14:00:56;3.10;;;2.78;;
50757;SDS011;36732;47.980;11.652;2023-06-10T14:03:23;3.47;;;2.83;;
50757;SDS011;36732;47.980;11.652;2023-06-10T14:05:49;3.50;;;2.70;;
50757;SDS011;36732;47.980;11.652;2023-06-10T14:08:15;2.78;;;2.58;;
50757;SDS011;36732;47.980;11.652;2023-06-10T14:10:41;2.92;;;2.58;;
50757;SDS011;36732;47.980;11.652;2023-06-10T14:13:07;2.42;;;2.22;;
50757;SDS011;36732;47.980;11.652;2023-06-10T14:15:33;3.10;;;2.80;;
50757;SDS011;36732;47.980;11.652;2023-06-10T14:17:58;2.58;;;2.38;;
50757;SDS011;36732;47.980;11.652;2023-06-10T14:20:24;2.70;;;2.42;;
50757;SDS011;36732;47.980;11.652;2023-06-10T14:22:51;2.40;;;2.20;;
50757;SDS011;36732;47.980;11.652;2023-06-10T14:25:17;5.65;;;2.65;;
50757;SDS011;36732;47.980;11.652;2023-06-10T14:27:43;2.60;;;2.38;;
50757;SDS011;36732;47.980;11.652;2023-06-10T14:30:12;335.05;;;21.02;;
50757;SDS011;36732;47.980;11.652;2023-06-10T14:32:38;40.72;;;5.55;;
50757;SDS011;36732;47.980;11.652;2023-06-10T14:35:03;2.95;;;2.65;;
50757;SDS011;36732;47.980;11.652;2023-06-10T14:37:29;2.10;;;1.90;;
50757;SDS011;36732;47.980;11.652;2023-06-10T14:39:55;3.40;;;2.40;;
50757;SDS011;36732;47.980;11.652;2023-06-10T14:42:21;2.78;;;2.30;;
50757;SDS011;36732;47.980;11.652;2023-06-10T14:44:46;3.22;;;2.83;;
50757;SDS011;36732;47.980;11.652;2023-06-10T14:47:12;2.45;;;2.20;;
50757;SDS011;36732;47.980;11.652;2023-06-10T14:49:38;2.63;;;2.30;;
50757;SDS011;36732;47.980;11.652;2023-06-10T14:52:04;2.60;;;2.40;;
50757;SDS011;36732;47.980;11.652;2023-06-10T14:54:30;2.50;;;2.30;;
50757;SDS011;36732;47.980;11.652;2023-06-10T14:56:55;2.45;;;2.25;;
50757;SDS011;36732;47.980;11.652;2023-06-10T14:59:21;2.30;;;2.00;;
50757;SDS011;36732;47.980;11.652;2023-06-10T15:01:47;2.72;;;2.25;;
50757;SDS011;36732;47.980;11.652;2023-06-10T15:04:12;3.33;;;2.10;;
50757;SDS011;36732;47.980;11.652;2023-06-10T15:06:38;2.50;;;2.30;;